Time;durP1;ratioP1;P1;durP2;ratioP2;P2;SDS_P1;SDS_P2;PMS_P1;PMS_P2;Temp;Humidity;BMP_temperature;BMP_pressure;BME280_temperature;BME280_humidity;BME280_pressure;Samples;Min_cycle;Max_cycle;Signal;HPM_P1;HPM_P2
2022/08/22 00:00:15;;;;;;;9.93;3.70;;;18.40;99.90;;;;;;5073360;28;20072;-61
2022/08/22 00:02:47;;;;;;;8.13;3.83;;;18.40;99.90;;;;;;5073466;28;20082;-62
2022/08/22 00:05:27;;;;;;;5.95;3.60;;;18.40;99.90;;;;;;5058795;28;20523;-62
2022/08/22 00:08:10;;;;;;;7.45;3.70;;;18.40;99.90;;;;;;5060705;28;20044;-62
2022/08/22 00:10:52;;;;;;;9.00;3.50;;;18.40;99.90;;;;;;5073250;28;20167;-62
2022/08/22 00:13:30;;;;;;;7.97;3.60;;;18.30;99.90;;;;;;5073368;28;20106;-62
2022/08/22 00:16:16;;;;;;;12.55;4.15;;;18.30;99.90;;;;;;5066661;28;20458;-62
2022/08/22 00:18:53;;;;;;;11.20;4.18;;;18.30;99.90;;;;;;5066181;28;20630;-62
2022/08/22 00:21:23;;;;;;;10.05;3.95;;;18.30;99.90;;;;;;5072839;28;20127;-62
2022/08/22 00:24:15;;;;;;;11.35;3.53;;;18.30;99.90;;;;;;5069900;28;20120;-62
2022/08/22 00:26:50;;;;;;;7.97;3.95;;;18.20;99.90;;;;;;5071278;28;20063;-62
2022/08/22 00:29:22;;;;;;;9.68;3.85;;;18.20;99.90;;;;;;5072506;28;20041;-62
2022/08/22 00:31:55;;;;;;;8.40;4.10;;;18.20;99.90;;;;;;5072787;28;20028;-62
2022/08/22 00:34:34;;;;;;;11.70;3.83;;;18.20;99.90;;;;;;5066257;28;20107;-62
2022/08/22 00:37:10;;;;;;;8.40;3.92;;;18.20;99.90;;;;;;5045474;28;20024;-62
2022/08/22 00:39:42;;;;;;;10.90;4.53;;;18.10;99.90;;;;;;5072348;28;20059;-62
2022/08/22 00:42:23;;;;;;;7.65;4.05;;;18.00;99.90;;;;;;5072530;28;20623;-62
2022/08/22 00:45:26;;;;;;;13.40;4.32;;;18.00;99.90;;;;;;5062747;28;20055;-62
2022/08/22 00:48:33;;;;;;;9.88;4.10;;;18.00;99.90;;;;;;5072448;28;20036;-62
2022/08/22 00:50:59;;;;;;;9.70;4.20;;;18.00;99.90;;;;;;5072200;28;20048;-62
2022/08/22 00:53:47;;;;;;;8.50;4.15;;;17.90;99.90;;;;;;5072137;28;20043;-61
2022/08/22 00:56:21;;;;;;;8.95;4.28;;;17.90;99.90;;;;;;5053190;28;20048;-61
2022/08/22 00:59:30;;;;;;;10.23;3.90;;;18.00;99.90;;;;;;5070743;28;20037;-61
2022/08/22 01:02:26;;;;;;;10.80;4.07;;;18.00;99.90;;;;;;5058392;28;20041;-59
2022/08/22 01:05:10;;;;;;;9.45;3.70;;;18.00;99.90;;;;;;5061512;28;20454;-59
2022/08/22 01:07:36;;;;;;;9.20;3.88;;;18.00;99.90;;;;;;5043909;28;20036;-59
2022/08/22 01:10:13;;;;;;;8.32;3.58;;;18.10;99.90;;;;;;5059590;28;20048;-59
2022/08/22 01:13:24;;;;;;;8.82;3.45;;;18.10;99.90;;;;;;5072016;28;20048;-59
2022/08/22 01:15:59;;;;;;;9.00;3.95;;;18.10;99.90;;;;;;5056164;28;20070;-58
2022/08/22 01:19:05;;;;;;;11.23;4.30;;;18.10;99.90;;;;;;5071528;28;20047;-59
2022/08/22 01:21:58;;;;;;;10.32;3.55;;;18.10;99.90;;;;;;5072110;28;20128;-59
2022/08/22 01:25:16;;;;;;;8.45;3.38;;;18.10;99.90;;;;;;5068281;28;20032;-59
2022/08/22 01:27:59;;;;;;;6.40;3.45;;;18.10;99.90;;;;;;5071164;28;20189;-58
2022/08/22 01:30:51;;;;;;;10.40;3.55;;;18.10;99.90;;;;;;5059843;28;20049;-59
2022/08/22 01:33:41;;;;;;;8.73;3.45;;;18.00;99.90;;;;;;5057440;28;20028;-58
2022/08/22 01:36:28;;;;;;;10.15;3.75;;;18.00;99.90;;;;;;5064899;28;20036;-59
2022/08/22 01:39:02;;;;;;;12.32;3.88;;;18.00;99.90;;;;;;5071386;28;20036;-59
2022/08/22 01:42:09;;;;;;;9.48;4.07;;;18.00;99.90;;;;;;5071653;28;20056;-59
2022/08/22 01:45:02;;;;;;;10.35;4.40;;;18.00;99.90;;;;;;5063543;28;20041;-59
2022/08/22 01:47:52;;;;;;;9.23;3.85;;;18.00;99.90;;;;;;5039533;28;20041;-58
2022/08/22 01:50:25;;;;;;;7.70;3.75;;;18.00;99.90;;;;;;5025314;28;20063;-58
2022/08/22 01:53:01;;;;;;;8.38;3.47;;;18.00;99.90;;;;;;5071736;28;20047;-58
2022/08/22 01:55:44;;;;;;;8.77;3.80;;;18.00;99.90;;;;;;5060153;28;20063;-59
2022/08/22 01:58:25;;;;;;;9.55;4.15;;;17.90;99.90;;;;;;5058657;28;20102;-59
2022/08/22 02:01:10;;;;;;;10.05;4.45;;;18.00;99.90;;;;;;5044922;28;20033;-58
2022/08/22 02:03:38;;;;;;;;;;;18.00;99.90;;;;;;5057634;28;20048;-59
2022/08/22 02:06:17;;;;;;;7.57;4.25;;;17.90;99.90;;;;;;5059003;28;19946;-59
2022/08/22 02:08:57;;;;;;;9.73;3.97;;;17.90;99.90;;;;;;5069440;28;20041;-59
2022/08/22 02:12:01;;;;;;;11.85;4.65;;;17.90;99.90;;;;;;5060924;28;20119;-59
2022/08/22 02:14:31;;;;;;;7.55;4.50;;;17.90;99.90;;;;;;5064633;28;20072;-59
2022/08/22 02:17:24;;;;;;;9.85;4.57;;;17.90;99.90;;;;;;5064513;28;20040;-59
2022/08/22 02:20:24;;;;;;;9.93;4.30;;;17.90;99.90;;;;;;5071545;28;20049;-59
2022/08/22 02:23:16;;;;;;;12.48;4.60;;;17.80;99.90;;;;;;5070775;28;20343;-59
2022/08/22 02:25:51;;;;;;;11.45;4.68;;;17.90;99.90;;;;;;5068862;28;20147;-59
2022/08/22 02:28:26;;;;;;;11.88;4.50;;;17.90;99.90;;;;;;5070666;28;20051;-58
2022/08/22 02:31:03;;;;;;;8.05;4.60;;;17.90;99.90;;;;;;5071331;28;20036;-59
2022/08/22 02:33:36;;;;;;;8.73;4.10;;;17.80;99.90;;;;;;5070897;28;20454;-59
2022/08/22 02:36:14;;;;;;;10.15;4.68;;;17.80;99.90;;;;;;5063328;28;20480;-59
2022/08/22 02:38:58;;;;;;;9.57;4.50;;;17.90;99.90;;;;;;5070242;28;20449;-59
2022/08/22 02:41:50;;;;;;;8.85;4.20;;;17.90;99.90;;;;;;5071127;28;20071;-58
2022/08/22 02:44:29;;;;;;;9.30;4.38;;;17.90;99.90;;;;;;5063164;28;20053;-58
2022/08/22 02:47:25;;;;;;;7.20;3.88;;;17.80;99.90;;;;;;5072443;28;20040;-59
2022/08/22 02:50:00;;;;;;;10.82;4.65;;;17.80;99.90;;;;;;5075138;28;20036;-59
2022/08/22 02:52:41;;;;;;;9.38;3.92;;;17.80;99.90;;;;;;5074405;28;20522;-58
2022/08/22 02:55:42;;;;;;;9.65;4.20;;;17.80;99.90;;;;;;5064049;28;20044;-59
2022/08/22 02:58:19;;;;;;;7.90;4.25;;;17.70;99.90;;;;;;5074387;28;20049;-59
2022/08/22 03:00:49;;;;;;;7.85;4.05;;;17.70;99.90;;;;;;5073218;28;20369;-59
2022/08/22 03:03:27;;;;;;;13.70;5.32;;;17.80;99.90;;;;;;5074666;28;20036;-59
2022/08/22 03:06:00;;;;;;;10.00;3.72;;;17.70;99.90;;;;;;5062437;28;20028;-59
2022/08/22 03:08:30;;;;;;;11.25;3.50;;;17.70;99.90;;;;;;5073971;28;20048;-59
2022/08/22 03:11:22;;;;;;;8.93;3.88;;;17.70;99.90;;;;;;5068916;28;20041;-59
2022/08/22 03:14:12;;;;;;;11.13;4.00;;;17.70;99.90;;;;;;5068708;28;20041;-58
2022/08/22 03:17:07;;;;;;;12.23;4.25;;;17.70;99.90;;;;;;5055891;28;20068;-59
2022/08/22 03:20:00;;;;;;;10.82;3.78;;;17.70;99.90;;;;;;5073287;28;20044;-59
2022/08/22 03:22:54;;;;;;;9.65;3.72;;;17.60;99.90;;;;;;5074085;28;20047;-59
2022/08/22 03:25:39;;;;;;;9.65;3.50;;;17.60;99.90;;;;;;5071390;28;20131;-58
2022/08/22 03:28:19;;;;;;;9.65;4.10;;;17.50;99.90;;;;;;5073600;28;20055;-59
2022/08/22 03:30:56;;;;;;;13.50;4.20;;;17.50;99.90;;;;;;5062354;28;20358;-59
2022/08/22 03:33:27;;;;;;;10.48;4.32;;;17.50;99.90;;;;;;5072046;28;20037;-59
2022/08/22 03:36:03;;;;;;;9.15;3.40;;;17.40;99.90;;;;;;5067212;28;20064;-59
2022/08/22 03:38:32;;;;;;;10.98;3.88;;;17.40;99.90;;;;;;5073049;28;20033;-58
2022/08/22 03:41:11;;;;;;;9.38;3.97;;;17.40;99.90;;;;;;5073950;28;20064;-59
2022/08/22 03:44:06;;;;;;;10.82;3.80;;;17.50;99.90;;;;;;5073802;28;20028;-58
2022/08/22 03:46:59;;;;;;;9.48;4.13;;;17.40;99.90;;;;;;5062304;28;20051;-58
2022/08/22 03:49:49;;;;;;;8.35;3.67;;;17.40;99.90;;;;;;5073251;28;20064;-59
2022/08/22 03:53:06;;;;;;;11.35;4.35;;;17.30;99.90;;;;;;5073303;28;20477;-59
2022/08/22 03:56:09;;;;;;;9.52;3.97;;;17.30;99.90;;;;;;5054024;28;20048;-58
2022/08/22 03:58:46;;;;;;;7.55;4.07;;;17.40;99.90;;;;;;5073291;28;20119;-58
2022/08/22 04:01:38;;;;;;;11.00;4.57;;;17.40;99.90;;;;;;5073662;28;20036;-59
2022/08/22 04:04:09;;;;;;;9.18;4.38;;;17.30;99.90;;;;;;5070927;28;20119;-58
2022/08/22 04:07:09;;;;;;;11.77;4.40;;;17.20;99.90;;;;;;5065263;28;20041;-58
2022/08/22 04:09:54;;;;;;;9.68;4.40;;;17.20;99.90;;;;;;5061309;28;20072;-59
2022/08/22 04:12:57;;;;;;;8.75;4.18;;;17.10;99.90;;;;;;5073259;28;20043;-59
2022/08/22 04:15:26;;;;;;;8.88;4.60;;;17.10;99.90;;;;;;5059929;28;20037;-58
2022/08/22 04:18:10;;;;;;;9.02;4.18;;;17.10;99.90;;;;;;5073330;28;20090;-59
2022/08/22 04:20:47;;;;;;;10.63;4.10;;;17.10;99.90;;;;;;5070642;28;20433;-59
2022/08/22 04:23:40;;;;;;;9.60;4.95;;;17.00;99.90;;;;;;5061811;28;20048;-59
2022/08/22 04:26:17;;;;;;;10.70;4.63;;;17.00;99.90;;;;;;5067484;28;20063;-58
2022/08/22 04:28:49;;;;;;;13.40;5.63;;;17.00;99.90;;;;;;5072556;28;20377;-58
2022/08/22 04:31:26;;;;;;;13.65;4.75;;;17.00;99.90;;;;;;5072634;28;20071;-59
2022/08/22 04:34:19;;;;;;;11.45;4.38;;;17.00;99.90;;;;;;5072343;28;20033;-59
2022/08/22 04:36:53;;;;;;;11.45;4.60;;;17.00;99.90;;;;;;5069263;28;20036;-59
2022/08/22 04:39:31;;;;;;;10.48;4.32;;;16.90;99.90;;;;;;5071514;28;20096;-59
2022/08/22 04:41:59;;;;;;;9.40;4.85;;;16.90;99.90;;;;;;5072541;28;20504;-59
2022/08/22 04:44:30;;;;;;;9.30;4.28;;;16.90;99.90;;;;;;5067527;28;20063;-59
2022/08/22 04:47:17;;;;;;;12.38;4.43;;;16.90;99.90;;;;;;5070854;28;20036;-59
2022/08/22 04:50:00;;;;;;;11.95;4.90;;;16.90;99.90;;;;;;5072632;28;20055;-58
2022/08/22 04:53:04;;;;;;;7.75;4.50;;;16.90;99.90;;;;;;5072443;28;20099;-59
2022/08/22 04:55:33;;;;;;;12.07;4.55;;;16.90;99.90;;;;;;5057933;28;20365;-58
2022/08/22 04:58:30;;;;;;;12.45;4.85;;;16.90;99.90;;;;;;5071899;28;20044;-59
2022/08/22 05:01:05;;;;;;;13.50;4.70;;;16.90;99.90;;;;;;5068617;28;20044;-58
2022/08/22 05:03:34;;;;;;;12.25;4.38;;;16.90;99.90;;;;;;5072359;28;20036;-59
2022/08/22 05:06:02;;;;;;;9.93;4.30;;;16.90;99.90;;;;;;5060783;28;20468;-58
2022/08/22 05:08:31;;;;;;;11.88;4.65;;;17.00;99.90;;;;;;5070817;28;20466;-58
2022/08/22 05:10:58;;;;;;;13.30;4.95;;;17.00;99.90;;;;;;5066222;28;20029;-58
2022/08/22 05:13:57;;;;;;;9.60;4.90;;;17.00;99.90;;;;;;5064062;28;20041;-58
2022/08/22 05:16:31;;;;;;;10.23;4.57;;;16.90;99.90;;;;;;5048119;28;20059;-59
2022/08/22 05:19:02;;;;;;;12.10;4.68;;;17.00;99.90;;;;;;5071519;28;20059;-59
2022/08/22 05:21:34;;;;;;;11.18;4.25;;;17.00;99.90;;;;;;5072035;28;20047;-59
2022/08/22 05:24:10;;;;;;;9.65;4.20;;;17.00;99.90;;;;;;5070763;28;20098;-59
2022/08/22 05:26:41;;;;;;;12.93;4.95;;;17.00;99.90;;;;;;5069931;28;20052;-58
2022/08/22 05:29:10;;;;;;;14.40;4.95;;;17.00;99.90;;;;;;5071483;28;20134;-59
2022/08/22 05:31:47;;;;;;;12.52;4.50;;;17.10;99.90;;;;;;5071384;28;20392;-58
2022/08/22 05:34:19;;;;;;;10.60;4.85;;;17.10;99.90;;;;;;5068703;28;20185;-58
2022/08/22 05:37:09;;;;;;;13.10;4.60;;;17.20;99.90;;;;;;5069621;28;20123;-58
2022/08/22 05:39:39;;;;;;;10.00;4.38;;;17.10;99.90;;;;;;5071459;28;20113;-58
2022/08/22 05:42:24;;;;;;;14.18;5.38;;;17.00;99.90;;;;;;5071706;28;20049;-58
2022/08/22 05:44:50;;;;;;;10.82;4.43;;;17.20;99.90;;;;;;5063980;28;20059;-59
2022/08/22 05:47:44;;;;;;;12.75;5.40;;;17.10;99.90;;;;;;5064148;28;20454;-58
2022/08/22 05:50:18;;;;;;;12.40;4.63;;;17.20;99.90;;;;;;5067964;28;20052;-58
2022/08/22 05:53:11;;;;;;;12.88;5.00;;;17.20;99.90;;;;;;5071484;28;20075;-58
2022/08/22 05:56:07;;;;;;;13.35;4.95;;;17.20;99.90;;;;;;5056817;28;20040;-59
2022/08/22 05:58:42;;;;;;;9.60;4.75;;;17.20;99.90;;;;;;5066322;28;20036;-59
2022/08/22 06:01:17;;;;;;;11.57;4.63;;;17.30;99.90;;;;;;5071461;28;20033;-58
2022/08/22 06:04:05;;;;;;;12.35;5.25;;;17.30;99.90;;;;;;5069992;28;20424;-59
2022/08/22 06:06:38;;;;;;;10.65;4.85;;;17.40;99.90;;;;;;5062370;28;20424;-59
2022/08/22 06:09:19;;;;;;;12.33;5.03;;;17.40;99.90;;;;;;5070791;28;20048;-59
2022/08/22 06:11:58;;;;;;;9.95;4.88;;;17.50;99.90;;;;;;5070093;28;20686;-58
2022/08/22 06:14:42;;;;;;;11.57;5.30;;;17.50;99.90;;;;;;5067012;28;20083;-59
2022/08/22 06:17:25;;;;;;;10.13;5.13;;;17.60;99.90;;;;;;5065325;28;20043;-59
2022/08/22 06:19:52;;;;;;;13.55;5.18;;;17.50;99.90;;;;;;5071633;28;20137;-58
2022/08/22 06:22:25;;;;;;;11.00;5.13;;;17.50;99.90;;;;;;5073803;28;20381;-59
2022/08/22 06:24:55;;;;;;;9.98;4.85;;;17.60;99.90;;;;;;5070849;28;20484;-59
2022/08/22 06:27:25;;;;;;;11.02;5.60;;;17.60;99.90;;;;;;5075220;28;20040;-59
2022/08/22 06:29:56;;;;;;;10.77;5.10;;;17.60;99.90;;;;;;5075164;28;20068;-58
2022/08/22 06:32:26;;;;;;;10.05;5.22;;;17.70;99.90;;;;;;5075719;28;20115;-59
2022/08/22 06:34:56;;;;;;;10.57;5.38;;;17.70;99.90;;;;;;5069419;28;20094;-58
2022/08/22 06:37:44;;;;;;;11.85;5.60;;;17.80;99.90;;;;;;5073509;28;20036;-59
2022/08/22 06:40:14;;;;;;;9.02;5.60;;;17.90;99.90;;;;;;5075022;28;20040;-59
2022/08/22 06:42:43;;;;;;;11.10;5.38;;;17.90;99.90;;;;;;5074878;28;20036;-59
2022/08/22 06:45:11;;;;;;;14.75;6.10;;;17.80;99.90;;;;;;5066442;28;20037;-58
2022/08/22 06:47:51;;;;;;;14.40;5.90;;;17.90;99.90;;;;;;5074656;28;20090;-59
2022/08/22 06:50:29;;;;;;;12.68;5.82;;;17.90;99.90;;;;;;5074496;28;20043;-58
2022/08/22 06:52:58;;;;;;;13.13;5.35;;;18.00;99.90;;;;;;5074609;28;20028;-59
2022/08/22 06:55:26;;;;;;;11.43;5.50;;;18.00;99.90;;;;;;5065849;28;20043;-59
2022/08/22 06:58:04;;;;;;;11.00;5.25;;;18.00;99.90;;;;;;5074262;28;20473;-59
2022/08/22 07:00:33;;;;;;;10.57;4.75;;;18.10;99.90;;;;;;5074723;28;20043;-58
2022/08/22 07:03:23;;;;;;;11.77;5.65;;;18.10;99.90;;;;;;5074722;28;20115;-59
2022/08/22 07:05:53;;;;;;;10.55;5.18;;;18.20;99.90;;;;;;5064254;28;20111;-59
2022/08/22 07:08:21;;;;;;;9.05;4.93;;;18.30;99.90;;;;;;5074140;28;20384;-59
2022/08/22 07:11:18;;;;;;;9.50;4.90;;;18.40;99.90;;;;;;5074379;28;20072;-59
2022/08/22 07:14:03;;;;;;;10.85;5.70;;;18.40;99.90;;;;;;5073891;28;20133;-59
2022/08/22 07:16:42;;;;;;;10.80;5.20;;;18.50;99.90;;;;;;5063313;28;20482;-58
2022/08/22 07:19:21;;;;;;;14.25;5.07;;;18.60;99.90;;;;;;5073860;28;20040;-58
2022/08/22 07:21:47;;;;;;;12.63;4.97;;;18.60;99.90;;;;;;5074261;28;20119;-58
2022/08/22 07:24:18;;;;;;;9.45;4.80;;;18.70;99.90;;;;;;5071870;28;20123;-58
2022/08/22 07:27:07;;;;;;;13.02;5.43;;;18.80;99.90;;;;;;5073375;28;20113;-58
2022/08/22 07:30:10;;;;;;;11.05;4.78;;;18.80;99.90;;;;;;5074025;28;20124;-59
2022/08/22 07:33:00;;;;;;;13.88;5.68;;;18.90;99.90;;;;;;5073572;28;20056;-59
2022/08/22 07:35:27;;;;;;;11.57;4.65;;;18.90;99.90;;;;;;5060439;28;20191;-58
2022/08/22 07:37:59;;;;;;;10.02;4.65;;;18.90;99.90;;;;;;5067124;28;20029;-59
2022/08/22 07:40:52;;;;;;;12.05;4.40;;;18.90;99.90;;;;;;5046517;28;20391;-59
2022/08/22 07:43:55;;;;;;;11.07;3.90;;;19.00;99.90;;;;;;5073065;28;20047;-59
2022/08/22 07:47:02;;;;;;;8.75;3.80;;;18.90;99.90;;;;;;5067275;28;20052;-59
2022/08/22 07:49:39;;;;;;;10.55;4.57;;;19.00;99.90;;;;;;5073176;28;20056;-59
2022/08/22 07:52:12;;;;;;;8.55;3.60;;;19.10;99.90;;;;;;5073557;28;20063;-59
2022/08/22 07:54:56;;;;;;;11.68;4.40;;;19.10;99.90;;;;;;5068187;28;20342;-60
2022/08/22 07:57:38;;;;;;;11.20;4.22;;;19.20;99.90;;;;;;5066076;28;20465;-59
2022/08/22 08:00:18;;;;;;;11.55;3.90;;;19.40;99.90;;;;;;5067568;28;20119;-59
2022/08/22 08:02:48;;;;;;;9.68;3.97;;;19.60;99.90;;;;;;5073602;28;20055;-59
2022/08/22 08:05:14;;;;;;;15.88;4.18;;;19.70;99.90;;;;;;5063498;28;20055;-59
2022/08/22 08:07:44;;;;;;;10.27;3.92;;;19.90;99.90;;;;;;5072963;28;20048;-59
2022/08/22 08:10:15;;;;;;;11.07;3.47;;;20.00;99.90;;;;;;5073234;28;20037;-59
2022/08/22 08:12:46;;;;;;;15.90;3.72;;;20.10;99.90;;;;;;5067551;28;20081;-59
2022/08/22 08:15:19;;;;;;;10.98;3.80;;;20.40;99.90;;;;;;5055960;28;20049;-58
2022/08/22 08:17:47;;;;;;;12.57;3.60;;;20.70;99.90;;;;;;5072406;28;20036;-59
2022/08/22 08:20:18;;;;;;;14.65;3.83;;;21.10;99.90;;;;;;5073329;28;20044;-59
2022/08/22 08:22:46;;;;;;;9.48;3.30;;;21.30;99.90;;;;;;5071948;28;20071;-59
2022/08/22 08:25:18;;;;;;;8.93;3.05;;;21.60;99.90;;;;;;5069809;28;20087;-59
2022/08/22 08:30:39;;;;;;;9.43;2.75;;;22.10;99.90;;;;;;5072867;28;20511;-59
2022/08/22 08:33:10;;;;;;;9.55;2.72;;;22.20;99.90;;;;;;5072945;28;20036;-58
2022/08/22 08:35:40;;;;;;;9.73;2.70;;;22.20;99.90;;;;;;5068328;28;20082;-59
2022/08/22 08:38:21;;;;;;;12.40;2.80;;;22.00;99.90;;;;;;5070999;28;20047;-59
2022/08/22 08:41:09;;;;;;;9.07;2.78;;;22.00;99.90;;;;;;5061981;28;20048;-59
2022/08/22 08:43:47;;;;;;;8.02;2.80;;;21.90;99.90;;;;;;5067306;28;20041;-59
2022/08/22 08:46:42;;;;;;;7.95;2.35;;;22.00;99.90;;;;;;5063193;28;20071;-59
2022/08/22 08:49:17;;;;;;;8.15;2.10;;;22.00;99.90;;;;;;5072251;28;20429;-59
2022/08/22 08:52:26;;;;;;;8.93;2.70;;;22.10;99.90;;;;;;5071152;28;20094;-59
2022/08/22 08:55:02;;;;;;;8.35;2.28;;;22.20;99.90;;;;;;5058647;28;20029;-60
2022/08/22 08:57:44;;;;;;;8.48;2.42;;;22.20;99.90;;;;;;5045004;28;20326;-59
2022/08/22 09:00:15;;;;;;;7.32;2.40;;;22.30;99.90;;;;;;5072113;28;20629;-59
2022/08/22 09:03:19;;;;;;;10.00;2.67;;;22.30;99.90;;;;;;5072466;28;20044;-59
2022/08/22 09:06:16;;;;;;;7.47;2.27;;;22.50;99.90;;;;;;5062808;28;20453;-60
2022/08/22 09:09:11;;;;;;;8.88;2.42;;;22.50;99.90;;;;;;5068242;28;20378;-60
2022/08/22 09:11:56;;;;;;;6.03;2.22;;;22.70;99.90;;;;;;5052311;28;20048;-60
2022/08/22 09:14:43;;;;;;;7.07;2.20;;;23.00;99.90;;;;;;5069453;28;20115;-60
2022/08/22 09:17:30;;;;;;;6.88;2.08;;;23.20;99.90;;;;;;5066377;28;20064;-59
2022/08/22 09:20:16;;;;;;;7.45;2.10;;;23.20;99.90;;;;;;5072077;28;20120;-60
2022/08/22 09:23:13;;;;;;;6.93;2.08;;;23.10;99.90;;;;;;5071868;28;20051;-60
2022/08/22 09:25:49;;;;;;;5.95;2.13;;;23.10;99.90;;;;;;5068975;28;20056;-60
2022/08/22 09:28:28;;;;;;;9.65;2.42;;;23.00;99.90;;;;;;5071476;28;20474;-59
2022/08/22 09:30:56;;;;;;;8.57;2.50;;;23.00;99.90;;;;;;5072143;28;20123;-59
2022/08/22 09:33:33;;;;;;;6.00;2.00;;;23.00;99.90;;;;;;5071864;28;20110;-59
2022/08/22 09:36:06;;;;;;;9.02;2.33;;;23.10;99.90;;;;;;5067730;28;20424;-60
2022/08/22 09:38:49;;;;;;;7.88;2.38;;;23.20;99.90;;;;;;5071218;28;20037;-59
2022/08/22 09:41:23;;;;;;;6.80;2.35;;;23.20;99.90;;;;;;5072140;28;20048;-60
2022/08/22 09:44:13;;;;;;;10.23;2.47;;;23.30;99.90;;;;;;5071803;28;20055;-59
2022/08/22 09:47:03;;;;;;;10.23;2.58;;;23.20;99.90;;;;;;5061937;28;20446;-61
2022/08/22 09:49:43;;;;;;;9.82;2.67;;;23.00;99.90;;;;;;5071354;28;20041;-60
2022/08/22 09:52:27;;;;;;;6.47;2.20;;;23.00;99.90;;;;;;5071494;28;20036;-60
2022/08/22 09:55:02;;;;;;;5.03;1.98;;;23.00;99.90;;;;;;5065133;28;20033;-59
2022/08/22 09:57:33;;;;;;;7.25;2.40;;;23.10;99.90;;;;;;5043966;28;20037;-60
2022/08/22 10:00:05;;;;;;;10.50;2.38;;;23.00;99.90;;;;;;5071652;28;20119;-59
2022/08/22 10:02:53;;;;;;;7.47;2.30;;;23.10;99.90;;;;;;5071543;28;20054;-59
2022/08/22 10:05:48;;;;;;;8.52;2.05;;;23.20;99.90;;;;;;5062416;28;20051;-59
2022/08/22 10:08:32;;;;;;;6.85;2.17;;;23.30;99.90;;;;;;5069636;28;20068;-59
2022/08/22 10:11:11;;;;;;;7.50;2.83;;;23.60;99.90;;;;;;5070994;28;20359;-59
2022/08/22 10:13:49;;;;;;;8.50;2.33;;;23.80;99.90;;;;;;5071491;28;20051;-57
2022/08/22 10:16:30;;;;;;;6.15;2.22;;;23.70;99.90;;;;;;5060849;28;20036;-59
2022/08/22 10:19:12;;;;;;;4.47;2.15;;;23.80;99.90;;;;;;5070923;28;20103;-59
2022/08/22 10:22:09;;;;;;;7.13;2.10;;;23.90;99.90;;;;;;5070946;28;20043;-60
2022/08/22 10:25:06;;;;;;;5.70;2.13;;;24.10;99.80;;;;;;5068566;28;20170;-58
2022/08/22 10:27:36;;;;;;;6.55;2.38;;;24.20;99.80;;;;;;5050682;28;20048;-58
2022/08/22 10:30:32;;;;;;;6.68;2.20;;;24.00;99.90;;;;;;5071202;28;20124;-58
2022/08/22 10:33:22;;;;;;;9.38;2.80;;;24.10;99.90;;;;;;5071147;28;20344;-58
2022/08/22 10:36:06;;;;;;;4.82;2.10;;;24.20;99.90;;;;;;5067440;28;20040;-58
2022/08/22 10:38:45;;;;;;;8.52;2.25;;;24.30;99.80;;;;;;5070606;28;20040;-58
2022/08/22 10:41:34;;;;;;;7.88;2.15;;;24.30;99.90;;;;;;5070048;28;20365;-58
2022/08/22 10:44:09;;;;;;;8.45;2.75;;;24.40;99.90;;;;;;5063429;28;20065;-58
2022/08/22 10:46:39;;;;;;;7.85;2.10;;;24.50;99.90;;;;;;5064004;28;20109;-58
2022/08/22 10:49:47;;;;;;;5.25;2.08;;;24.50;99.80;;;;;;5071313;28;20084;-58
2022/08/22 10:52:23;;;;;;;8.32;2.50;;;24.40;99.90;;;;;;5059890;28;20145;-58
2022/08/22 10:55:13;;;;;;;6.53;2.05;;;24.40;99.90;;;;;;5065524;28;20033;-58
2022/08/22 10:58:05;;;;;;;6.90;2.00;;;24.50;99.50;;;;;;5045443;28;20040;-59
2022/08/22 11:00:52;;;;;;;8.27;2.15;;;24.40;99.60;;;;;;5070912;28;20072;-58
2022/08/22 11:03:37;;;;;;;6.60;2.45;;;24.40;99.10;;;;;;5071056;28;20053;-59
2022/08/22 11:06:23;;;;;;;5.43;1.92;;;24.50;99.50;;;;;;5062550;28;20475;-59
2022/08/22 11:09:17;;;;;;;7.63;2.10;;;24.40;99.30;;;;;;5073650;28;20115;-58
2022/08/22 11:12:11;;;;;;;5.05;2.00;;;24.60;98.80;;;;;;5074601;28;20068;-59
2022/08/22 11:15:01;;;;;;;11.15;2.33;;;24.60;99.30;;;;;;5070454;28;20518;-58
2022/08/22 11:18:02;;;;;;;8.23;2.03;;;24.70;99.20;;;;;;5071157;28;20033;-58
2022/08/22 11:20:47;;;;;;;5.70;2.13;;;24.80;98.40;;;;;;5065486;28;20052;-59
2022/08/22 11:23:34;;;;;;;6.28;2.13;;;24.70;98.90;;;;;;5074316;28;20072;-58
2022/08/22 11:26:05;;;;;;;5.07;2.10;;;24.80;98.60;;;;;;5072225;28;20063;-59
2022/08/22 11:28:58;;;;;;;7.15;2.22;;;24.80;98.50;;;;;;5072554;28;20037;-59
2022/08/22 11:31:42;;;;;;;4.88;1.88;;;24.80;98.10;;;;;;5074310;28;20059;-59
2022/08/22 11:34:08;;;;;;;6.35;1.98;;;24.90;98.40;;;;;;5072904;28;20323;-59
2022/08/22 11:36:59;;;;;;;8.32;3.00;;;25.00;97.90;;;;;;5055710;28;20041;-59
2022/08/22 11:39:39;;;;;;;8.65;2.35;;;25.00;98.00;;;;;;5067443;28;20056;-60
2022/08/22 11:42:13;;;;;;;4.85;1.73;;;24.90;97.80;;;;;;5059721;28;20140;-59
2022/08/22 11:44:55;;;;;;;6.15;2.00;;;24.70;98.40;;;;;;5069010;28;20421;-60
2022/08/22 11:47:26;;;;;;;5.80;1.98;;;24.70;98.60;;;;;;5040876;28;20043;-60
2022/08/22 11:50:09;;;;;;;5.85;2.10;;;24.80;98.50;;;;;;5068047;28;20063;-60
2022/08/22 11:52:53;;;;;;;;;;;24.90;98.10;;;;;;5074208;28;20076;-61
2022/08/22 11:55:51;;;;;;;8.10;2.20;;;25.00;98.30;;;;;;5066953;28;19924;-60
2022/08/22 11:58:16;;;;;;;5.78;2.20;;;25.00;98.20;;;;;;5051200;28;20037;-61
2022/08/22 12:01:00;;;;;;;5.80;2.10;;;25.10;98.70;;;;;;5072514;28;20051;-60
2022/08/22 12:03:42;;;;;;;6.03;2.17;;;25.00;98.50;;;;;;5073718;28;20051;-60
2022/08/22 12:06:35;;;;;;;6.88;2.75;;;25.00;98.60;;;;;;5065337;28;20446;-60
2022/08/22 12:09:14;;;;;;;8.27;2.33;;;25.00;98.70;;;;;;5073391;28;20047;-59
2022/08/22 12:11:44;;;;;;;7.40;2.08;;;25.00;98.60;;;;;;5073587;28;20095;-60
2022/08/22 12:14:25;;;;;;;7.22;2.38;;;25.10;98.90;;;;;;5073138;28;20487;-60
2022/08/22 12:17:17;;;;;;;7.72;2.13;;;25.20;98.60;;;;;;5057409;28;20037;-60
2022/08/22 12:19:57;;;;;;;6.60;2.00;;;25.30;98.50;;;;;;5065089;28;20041;-60
2022/08/22 12:22:41;;;;;;;6.45;2.10;;;25.40;98.10;;;;;;5068865;28;20140;-60
2022/08/22 12:25:18;;;;;;;8.75;2.50;;;25.40;97.70;;;;;;5064450;28;20057;-60
2022/08/22 12:27:50;;;;;;;6.53;2.25;;;25.40;97.90;;;;;;5066222;28;20047;-60
2022/08/22 12:30:40;;;;;;;5.85;2.25;;;25.40;98.10;;;;;;5073004;28;20067;-59
2022/08/22 12:33:09;;;;;;;6.97;2.55;;;25.40;97.90;;;;;;5071963;28;20400;-60
2022/08/22 12:36:11;;;;;;;4.78;2.00;;;25.40;98.00;;;;;;5069126;28;20048;-60
2022/08/22 12:39:03;;;;;;;6.57;2.15;;;25.20;98.10;;;;;;5072336;28;20304;-59
2022/08/22 12:42:00;;;;;;;8.68;2.35;;;25.40;98.20;;;;;;5072558;28;20036;-60
2022/08/22 12:44:50;;;;;;;6.63;2.30;;;25.60;97.60;;;;;;5071021;28;20063;-59
2022/08/22 12:47:41;;;;;;;6.85;2.30;;;25.70;97.60;;;;;;5045565;28;20040;-58
2022/08/22 12:50:18;;;;;;;5.80;2.10;;;25.90;97.20;;;;;;5072636;28;20127;-59
2022/08/22 12:53:05;;;;;;;6.07;2.30;;;26.00;97.30;;;;;;5072685;28;20064;-59
2022/08/22 12:55:43;;;;;;;6.90;2.72;;;26.00;96.60;;;;;;5066363;28;20520;-60
2022/08/22 12:58:18;;;;;;;6.78;2.42;;;26.10;97.30;;;;;;5072298;28;20032;-60
2022/08/22 13:00:46;;;;;;;8.80;2.45;;;26.10;97.30;;;;;;5072474;28;20048;-59
2022/08/22 13:03:49;;;;;;;6.35;2.33;;;26.20;96.80;;;;;;5072556;28;20041;-60
2022/08/22 13:06:34;;;;;;;5.60;2.20;;;26.20;96.90;;;;;;5063263;28;20125;-59
2022/08/22 13:09:14;;;;;;;6.88;2.30;;;26.10;97.20;;;;;;5071926;28;20105;-59
2022/08/22 13:11:42;;;;;;;8.63;2.42;;;26.10;97.30;;;;;;5072354;28;20083;-60
2022/08/22 13:14:10;;;;;;;5.05;2.40;;;26.20;97.20;;;;;;5072555;28;20072;-60
2022/08/22 13:16:42;;;;;;;6.68;1.90;;;26.20;96.30;;;;;;5062632;28;20036;-60
2022/08/22 13:19:14;;;;;;;6.28;2.22;;;26.40;96.20;;;;;;5072071;28;20049;-60
2022/08/22 13:21:47;;;;;;;9.47;2.43;;;26.50;96.30;;;;;;5072021;28;20037;-60
2022/08/22 13:24:27;;;;;;;6.93;2.28;;;26.60;96.10;;;;;;5069275;28;20357;-60
2022/08/22 13:26:59;;;;;;;7.25;2.30;;;26.60;95.50;;;;;;5045234;28;20047;-61
2022/08/22 13:29:38;;;;;;;6.10;2.20;;;26.60;95.90;;;;;;5071633;28;20044;-60
2022/08/22 13:32:05;;;;;;;7.15;2.50;;;26.80;95.50;;;;;;5072097;28;20358;-60
2022/08/22 13:34:52;;;;;;;6.88;2.67;;;27.00;94.60;;;;;;5069995;28;20040;-60
2022/08/22 13:37:23;;;;;;;6.47;2.03;;;26.80;95.10;;;;;;5048067;28;20055;-60
2022/08/22 13:39:52;;;;;;;4.28;2.10;;;26.90;95.10;;;;;;5071660;28;20037;-60
2022/08/22 13:42:21;;;;;;;5.80;2.05;;;27.00;94.60;;;;;;5071544;28;20378;-60
2022/08/22 13:44:53;;;;;;;6.00;2.33;;;27.20;94.30;;;;;;5067694;28;20102;-60
2022/08/22 13:47:22;;;;;;;7.55;2.30;;;27.10;94.30;;;;;;5070201;28;20048;-60
2022/08/22 13:49:52;;;;;;;12.63;2.60;;;27.20;94.70;;;;;;5070782;28;20446;-60
2022/08/22 13:52:24;;;;;;;5.40;1.90;;;27.20;94.90;;;;;;5055962;28;20358;-60
2022/08/22 13:54:59;;;;;;;6.80;2.25;;;27.30;95.00;;;;;;5067726;28;20032;-60
2022/08/22 13:57:51;;;;;;;6.88;2.30;;;27.10;95.10;;;;;;5043362;28;20063;-60